Terminal Aerodrome Forecast
Issued by NWS Jackson, MS

Home | Current Version | Previous Version | Text Only | Print | Product List | Glossary On
Versions: 1 2 3 4 5 6 7 8 9 10 11 12 13 14 15 16 17 18 19 20 21 22
000
FTUS44 KJAN 180555
TAFGLH
TAF
KGLH 180555Z 1806/1906 04003KT P6SM -SHRA BKN018 OVC100
     FM181200 05006KT P6SM BKN012 OVC070
     FM181600 06008KT 4SM TSRA BR SCT008 BKN015CB OVC060=

USA.gov is the U.S. government's official web portal to all federal, state and local government web resources and services.